createdAt,value
2023-07-21T00:00:14.210Z,2.67
2023-07-21T00:02:47.896Z,0.60
2023-07-21T00:05:19.961Z,0.50
2023-07-21T00:07:51.823Z,1.07
2023-07-21T00:10:23.708Z,0.80
2023-07-21T00:12:55.605Z,0.93
2023-07-21T00:15:27.502Z,0.80
2023-07-21T00:17:59.400Z,2.60
2023-07-21T00:20:31.458Z,1.10
2023-07-21T00:23:03.310Z,1.83
2023-07-21T00:25:35.240Z,1.23
2023-07-21T00:28:07.101Z,1.20
2023-07-21T00:30:39.102Z,1.67
2023-07-21T00:33:10.970Z,1.40
2023-07-21T00:35:42.894Z,0.80
2023-07-21T00:38:14.752Z,1.97
2023-07-21T00:40:46.665Z,1.13
2023-07-21T00:43:18.644Z,1.33
2023-07-21T00:45:50.640Z,1.00
2023-07-21T00:48:22.513Z,2.40
2023-07-21T00:50:54.427Z,1.70
2023-07-21T00:53:26.305Z,2.83
2023-07-21T00:55:58.560Z,3.80
2023-07-21T00:58:30.425Z,0.93
2023-07-21T01:01:02.444Z,0.70
2023-07-21T01:03:34.563Z,1.87
2023-07-21T01:06:06.960Z,0.83
2023-07-21T01:08:38.832Z,0.97
2023-07-21T01:11:10.708Z,0.93
2023-07-21T01:13:42.657Z,1.07
2023-07-21T01:16:15.235Z,2.07
2023-07-21T01:18:47.119Z,1.47
2023-07-21T01:21:19.058Z,1.27
2023-07-21T01:23:50.951Z,1.97
2023-07-21T01:26:23.035Z,1.43
2023-07-21T01:28:55.227Z,1.67
2023-07-21T01:31:27.141Z,2.80
2023-07-21T01:33:59.316Z,0.97
2023-07-21T01:36:31.198Z,2.30
2023-07-21T01:39:03.133Z,1.30
2023-07-21T01:41:35.416Z,2.00
2023-07-21T01:44:07.322Z,2.43
2023-07-21T01:46:39.229Z,2.87
2023-07-21T01:49:11.135Z,2.17
2023-07-21T01:51:42.989Z,1.17
2023-07-21T01:54:14.910Z,1.33
2023-07-21T01:56:46.797Z,1.63
2023-07-21T01:59:18.764Z,2.27
2023-07-21T02:01:50.858Z,1.80
2023-07-21T02:04:22.996Z,1.73
2023-07-21T02:06:54.922Z,1.57
2023-07-21T02:09:27.190Z,1.13
2023-07-21T02:11:59.077Z,2.13
2023-07-21T02:14:41.747Z,1.27
2023-07-21T02:17:13.762Z,1.10
2023-07-21T02:19:46.089Z,2.30
2023-07-21T02:22:17.972Z,1.00
2023-07-21T02:24:50.070Z,3.23
2023-07-21T02:27:21.962Z,1.43
2023-07-21T02:29:53.928Z,2.00
2023-07-21T02:32:25.884Z,1.60
2023-07-21T02:34:57.758Z,2.13
2023-07-21T02:37:29.628Z,3.53
2023-07-21T02:40:01.539Z,3.27
2023-07-21T02:42:33.850Z,1.83
2023-07-21T02:45:05.754Z,4.13
2023-07-21T02:47:37.694Z,2.33
2023-07-21T02:50:09.728Z,5.27
2023-07-21T02:52:42.171Z,1.53
2023-07-21T02:55:14.316Z,2.27
2023-07-21T02:57:46.578Z,3.73
2023-07-21T03:00:19.372Z,3.47
2023-07-21T03:02:52.994Z,2.10
2023-07-21T03:05:26.856Z,3.70
2023-07-21T03:07:58.881Z,2.67
2023-07-21T03:10:30.991Z,3.00
2023-07-21T03:13:03.315Z,2.83
2023-07-21T03:15:36.907Z,4.73
2023-07-21T03:18:12.936Z,2.93
2023-07-21T03:20:49.639Z,3.50
2023-07-21T03:23:22.114Z,3.20
2023-07-21T03:25:54.073Z,5.77
2023-07-21T03:28:26.901Z,3.33
2023-07-21T03:30:58.938Z,3.67
2023-07-21T03:33:31.288Z,3.97
2023-07-21T03:36:13.927Z,2.67
2023-07-21T03:38:45.800Z,3.03
2023-07-21T03:41:17.761Z,2.17
2023-07-21T03:43:49.813Z,3.20
2023-07-21T03:46:22.487Z,4.33
2023-07-21T03:49:04.850Z,2.70
2023-07-21T03:51:37.495Z,4.20
2023-07-21T03:54:09.586Z,2.77
2023-07-21T03:56:41.459Z,3.20
2023-07-21T03:59:13.561Z,4.27
2023-07-21T04:01:45.419Z,3.00
2023-07-21T04:04:18.108Z,3.57
2023-07-21T04:06:50.068Z,5.73
2023-07-21T04:09:21.975Z,3.03
2023-07-21T04:11:54.018Z,6.93
2023-07-21T04:14:25.958Z,3.37
2023-07-21T04:16:57.847Z,3.83
2023-07-21T04:19:29.746Z,3.93
2023-07-21T04:22:02.088Z,3.83
2023-07-21T04:24:34.008Z,4.07
2023-07-21T04:27:05.946Z,5.87
2023-07-21T04:29:39.234Z,3.97
2023-07-21T04:32:12.347Z,4.70
2023-07-21T04:34:44.268Z,4.30
2023-07-21T04:37:16.132Z,4.77
2023-07-21T04:39:49.733Z,3.10
2023-07-21T04:42:21.860Z,3.20
2023-07-21T04:44:53.763Z,4.83
2023-07-21T04:47:25.827Z,3.90
2023-07-21T04:50:02.357Z,4.03
2023-07-21T04:52:34.268Z,5.43
2023-07-21T04:55:06.693Z,3.10
2023-07-21T04:57:39.035Z,3.13
2023-07-21T05:00:11.217Z,3.77
2023-07-21T05:02:43.136Z,4.33
2023-07-21T05:05:15.104Z,3.83
2023-07-21T05:07:48.756Z,3.77
2023-07-21T05:10:21.008Z,3.93
2023-07-21T05:12:52.902Z,3.97
2023-07-21T05:15:29.158Z,4.20
2023-07-21T05:18:02.822Z,5.63
2023-07-21T05:20:53.002Z,5.83
2023-07-21T05:23:26.642Z,7.47
2023-07-21T05:26:00.306Z,4.23
2023-07-21T05:28:34.018Z,8.60
2023-07-21T05:31:05.954Z,5.23
2023-07-21T05:33:45.108Z,7.97
2023-07-21T05:36:17.600Z,6.27
2023-07-21T05:38:49.716Z,4.40
2023-07-21T05:41:21.651Z,9.43
2023-07-21T05:43:53.847Z,5.17
2023-07-21T05:46:25.996Z,6.87
2023-07-21T05:48:59.687Z,6.97
2023-07-21T05:51:31.612Z,6.43
2023-07-21T05:54:05.225Z,4.73
2023-07-21T05:56:37.059Z,5.97
2023-07-21T05:59:10.641Z,4.90
2023-07-21T06:01:43.100Z,3.77
2023-07-21T06:04:15.102Z,4.70
2023-07-21T06:06:48.648Z,4.00
2023-07-21T06:09:34.226Z,3.40
2023-07-21T06:12:10.750Z,4.23
2023-07-21T06:14:44.314Z,3.47
2023-07-21T06:17:23.902Z,4.97
2023-07-21T06:19:57.822Z,5.20
2023-07-21T06:22:29.890Z,3.97
2023-07-21T06:25:01.759Z,3.87
2023-07-21T06:27:33.700Z,3.10
2023-07-21T06:30:05.635Z,4.53
2023-07-21T06:32:39.274Z,6.97
2023-07-21T06:35:12.907Z,4.20
2023-07-21T06:37:49.493Z,6.33
2023-07-21T06:40:28.796Z,2.90
2023-07-21T06:43:05.332Z,4.93
2023-07-21T06:45:42.242Z,5.83
2023-07-21T06:48:15.832Z,2.23
2023-07-21T06:50:58.393Z,3.57
2023-07-21T06:53:30.317Z,2.50
2023-07-21T06:56:02.243Z,4.30
2023-07-21T06:58:34.131Z,3.10
2023-07-21T07:01:06.127Z,1.97
2023-07-21T07:03:38.026Z,2.30
2023-07-21T07:06:09.927Z,1.50
2023-07-21T07:08:41.845Z,1.67
2023-07-21T07:11:13.764Z,2.77
2023-07-21T07:13:45.925Z,2.93
2023-07-21T07:16:17.800Z,5.57
2023-07-21T07:18:49.661Z,1.67
2023-07-21T07:21:21.547Z,1.93
2023-07-21T07:23:53.383Z,1.70
2023-07-21T07:26:26.720Z,5.20
2023-07-21T07:28:58.666Z,2.07
2023-07-21T07:31:30.590Z,1.87
2023-07-21T07:34:02.612Z,2.80
2023-07-21T07:36:34.478Z,1.60
2023-07-21T07:39:06.371Z,2.00
2023-07-21T07:41:38.264Z,3.03
2023-07-21T07:44:10.153Z,2.87
2023-07-21T07:46:42.068Z,2.10
2023-07-21T07:49:14.086Z,2.17
2023-07-21T07:51:45.979Z,2.30
2023-07-21T07:54:17.856Z,2.17
2023-07-21T07:56:49.706Z,2.87
2023-07-21T07:59:21.591Z,2.13
2023-07-21T08:01:53.472Z,2.77
2023-07-21T08:04:25.605Z,2.17
2023-07-21T08:06:57.565Z,3.00
2023-07-21T08:09:29.447Z,3.63
2023-07-21T08:12:01.355Z,2.47
2023-07-21T08:14:33.243Z,3.93
2023-07-21T08:17:05.301Z,2.53
2023-07-21T08:19:37.320Z,3.03
2023-07-21T08:22:09.562Z,3.87
2023-07-21T08:24:41.625Z,3.87
2023-07-21T08:27:13.647Z,3.10
2023-07-21T08:29:45.646Z,5.57
2023-07-21T08:32:17.528Z,2.60
2023-07-21T08:34:49.674Z,4.70
2023-07-21T08:37:21.669Z,3.93
2023-07-21T08:39:53.499Z,4.97
2023-07-21T08:42:25.417Z,3.40
2023-07-21T08:44:57.374Z,4.13
2023-07-21T08:47:29.247Z,8.10
2023-07-21T08:50:01.275Z,2.73
2023-07-21T08:52:33.331Z,2.53
2023-07-21T08:55:05.486Z,3.40
2023-07-21T08:57:37.342Z,3.07
2023-07-21T09:00:09.207Z,3.63
2023-07-21T09:02:41.220Z,4.00
2023-07-21T09:05:13.072Z,2.27
2023-07-21T09:07:45.482Z,4.07
2023-07-21T09:10:18.398Z,2.17
2023-07-21T09:12:50.230Z,1.57
2023-07-21T09:15:22.089Z,1.80
2023-07-21T09:17:54.070Z,3.87
2023-07-21T09:20:25.980Z,1.57
2023-07-21T09:22:58.109Z,3.07
2023-07-21T09:25:30.080Z,3.80
2023-07-21T09:28:02.108Z,3.03
2023-07-21T09:30:33.983Z,1.80
2023-07-21T09:33:05.919Z,3.27
2023-07-21T09:35:37.841Z,3.83
2023-07-21T09:38:09.697Z,3.50
2023-07-21T09:40:41.554Z,2.40
2023-07-21T09:43:13.423Z,2.80
2023-07-21T09:45:45.577Z,2.67
2023-07-21T09:48:17.446Z,1.53
2023-07-21T09:50:49.549Z,3.03
2023-07-21T09:53:21.446Z,0.80
2023-07-21T09:55:53.537Z,4.63
2023-07-21T09:58:25.440Z,2.27
2023-07-21T10:00:57.442Z,3.03
2023-07-21T10:03:29.421Z,3.30
2023-07-21T10:06:01.590Z,4.37
2023-07-21T10:08:33.457Z,5.33
2023-07-21T10:11:05.312Z,2.27
2023-07-21T10:13:37.204Z,1.73
2023-07-21T10:16:09.145Z,2.47
2023-07-21T10:18:41.213Z,2.90
2023-07-21T10:21:13.092Z,2.33
2023-07-21T10:23:44.958Z,2.60
2023-07-21T10:26:16.836Z,2.40
2023-07-21T10:28:48.724Z,1.17
2023-07-21T10:31:20.613Z,1.70
2023-07-21T10:33:52.787Z,1.90
2023-07-21T10:36:24.651Z,1.97
2023-07-21T10:38:58.501Z,2.53
2023-07-21T10:41:30.643Z,1.73
2023-07-21T10:44:02.754Z,3.40
2023-07-21T10:46:34.616Z,9.57
2023-07-21T10:49:06.763Z,1.80
2023-07-21T10:51:38.607Z,1.60
2023-07-21T10:54:10.528Z,7.00
2023-07-21T10:56:42.547Z,3.63
2023-07-21T10:59:14.438Z,4.17
2023-07-21T11:01:46.401Z,2.30
2023-07-21T11:04:18.421Z,2.60
2023-07-21T11:06:50.477Z,3.90
2023-07-21T11:09:22.619Z,2.10
2023-07-21T11:11:54.897Z,2.30
2023-07-21T11:14:26.810Z,3.07
2023-07-21T11:16:58.987Z,6.80
2023-07-21T11:19:31.180Z,2.60
2023-07-21T11:22:03.059Z,2.87
2023-07-21T11:24:35.061Z,3.20
2023-07-21T11:27:10.348Z,4.10
2023-07-21T11:29:40.672Z,4.63
2023-07-21T11:32:12.595Z,2.97
2023-07-21T11:34:44.541Z,4.90
2023-07-21T11:37:16.520Z,2.80
2023-07-21T11:39:48.843Z,2.43
2023-07-21T11:42:20.725Z,3.70
2023-07-21T11:44:52.593Z,3.90
2023-07-21T11:47:24.496Z,3.07
2023-07-21T11:49:56.367Z,3.33
2023-07-21T11:52:28.773Z,2.43
2023-07-21T11:55:00.868Z,3.77
2023-07-21T11:57:32.749Z,2.37
2023-07-21T12:00:04.631Z,3.00
2023-07-21T12:02:38.346Z,2.60
2023-07-21T12:05:10.446Z,3.47
2023-07-21T12:07:42.342Z,2.10
2023-07-21T12:10:14.389Z,2.53
2023-07-21T12:12:46.363Z,1.60
2023-07-21T12:15:18.215Z,3.03
2023-07-21T12:17:50.247Z,3.70
2023-07-21T12:20:22.129Z,4.10
2023-07-21T12:22:54.121Z,2.50
2023-07-21T12:25:26.086Z,4.23
2023-07-21T12:27:58.017Z,2.87
2023-07-21T12:30:30.390Z,2.70
2023-07-21T12:33:02.559Z,2.63
2023-07-21T12:35:34.723Z,2.23
2023-07-21T12:38:06.870Z,3.83
2023-07-21T12:40:38.928Z,2.97
2023-07-21T12:43:10.817Z,2.20
2023-07-21T12:45:42.772Z,6.80
2023-07-21T12:48:14.729Z,2.47
2023-07-21T12:50:46.725Z,2.50
2023-07-21T12:53:18.599Z,3.17
2023-07-21T12:55:50.496Z,3.07
2023-07-21T12:58:22.370Z,3.27
2023-07-21T13:00:54.236Z,3.97
2023-07-21T13:03:26.339Z,2.20
2023-07-21T13:05:58.335Z,3.20
2023-07-21T13:08:30.518Z,2.50
2023-07-21T13:11:02.473Z,2.47
2023-07-21T13:13:34.350Z,2.60
2023-07-21T13:16:06.323Z,2.93
2023-07-21T13:18:38.459Z,3.50
2023-07-21T13:21:12.634Z,2.77
2023-07-21T13:23:44.629Z,2.90
2023-07-21T13:26:16.473Z,4.00
2023-07-21T13:28:48.367Z,3.10
2023-07-21T13:31:20.322Z,3.43
2023-07-21T13:33:52.269Z,2.90
2023-07-21T13:36:24.461Z,7.90
2023-07-21T13:38:56.765Z,4.30
2023-07-21T13:41:28.812Z,4.87
2023-07-21T13:44:00.732Z,5.23
2023-07-21T13:46:32.706Z,4.80
2023-07-21T13:49:05.176Z,4.60
2023-07-21T13:51:37.306Z,6.03
2023-07-21T13:54:10.943Z,7.17
2023-07-21T13:56:42.681Z,4.53
2023-07-21T13:59:14.600Z,6.30
2023-07-21T14:01:46.582Z,4.87
2023-07-21T14:04:18.829Z,8.37
2023-07-21T14:06:50.727Z,5.53
2023-07-21T14:09:22.638Z,8.63
2023-07-21T14:11:54.578Z,5.53
2023-07-21T14:14:26.507Z,6.17
2023-07-21T14:16:58.502Z,5.47
2023-07-21T14:19:30.545Z,8.03
2023-07-21T14:22:02.809Z,3.83
2023-07-21T14:24:34.762Z,5.47
2023-07-21T14:27:06.909Z,5.87
2023-07-21T14:29:40.647Z,6.50
2023-07-21T14:32:12.554Z,9.03
2023-07-21T14:34:44.462Z,8.03
2023-07-21T14:37:16.340Z,8.67
2023-07-21T14:39:48.242Z,7.10
2023-07-21T14:42:21.207Z,4.80
2023-07-21T14:44:53.364Z,7.20
2023-07-21T14:47:25.299Z,6.43
2023-07-21T14:49:57.205Z,5.80
2023-07-21T14:52:29.112Z,5.30
2023-07-21T14:55:01.005Z,6.37
2023-07-21T14:57:32.886Z,8.37
2023-07-21T15:00:04.937Z,5.20
2023-07-21T15:02:36.973Z,5.87
2023-07-21T15:05:08.917Z,5.43
2023-07-21T15:07:40.822Z,6.10
2023-07-21T15:10:12.888Z,5.07
2023-07-21T15:12:44.990Z,5.03
2023-07-21T15:15:16.899Z,6.37
2023-07-21T15:17:48.855Z,6.37
2023-07-21T15:20:20.875Z,8.33
2023-07-21T15:22:52.786Z,6.00
2023-07-21T15:25:24.649Z,7.67
2023-07-21T15:27:56.542Z,5.73
2023-07-21T15:30:28.744Z,5.33
2023-07-21T15:33:00.723Z,4.20
2023-07-21T15:35:32.651Z,7.37
2023-07-21T15:38:04.605Z,6.07
2023-07-21T15:40:36.719Z,5.67
2023-07-21T15:43:08.602Z,6.90
2023-07-21T15:45:40.539Z,5.77
2023-07-21T15:48:12.709Z,6.90
2023-07-21T15:50:44.901Z,6.93
2023-07-21T15:53:16.965Z,5.30
2023-07-21T15:55:48.949Z,6.37
2023-07-21T15:58:20.861Z,5.90
2023-07-21T16:00:52.843Z,7.27
2023-07-21T16:03:24.722Z,5.87
2023-07-21T16:05:56.876Z,5.77
2023-07-21T16:08:28.811Z,9.00
2023-07-21T16:11:00.745Z,7.57
2023-07-21T16:13:35.745Z,6.23
2023-07-21T16:16:06.764Z,5.20
2023-07-21T16:18:38.768Z,6.17
2023-07-21T16:21:10.641Z,5.10
2023-07-21T16:23:42.579Z,4.37
2023-07-21T16:26:14.416Z,5.67
2023-07-21T16:28:46.291Z,5.03
2023-07-21T16:31:18.393Z,3.33
2023-07-21T16:33:50.480Z,2.97
2023-07-21T16:36:22.369Z,4.70
2023-07-21T16:38:54.212Z,3.30
2023-07-21T16:41:26.242Z,4.27
2023-07-21T16:43:58.309Z,3.50
2023-07-21T16:46:30.490Z,3.97
2023-07-21T16:49:02.549Z,3.60
2023-07-21T16:51:34.544Z,4.60
2023-07-21T16:54:06.638Z,3.67
2023-07-21T16:56:38.503Z,3.97
2023-07-21T16:59:10.376Z,4.87
2023-07-21T17:01:42.276Z,2.37
2023-07-21T17:04:16.390Z,3.90
2023-07-21T17:06:47.553Z,4.70
2023-07-21T17:09:19.437Z,3.10
2023-07-21T17:11:51.362Z,6.17
2023-07-21T17:14:23.201Z,2.87
2023-07-21T17:16:55.129Z,3.90
2023-07-21T17:19:27.062Z,4.17
2023-07-21T17:21:58.943Z,2.53
2023-07-21T17:24:30.876Z,2.90
2023-07-21T17:27:06.100Z,5.73
2023-07-21T17:29:36.723Z,4.37
2023-07-21T17:32:08.578Z,3.97
2023-07-21T17:34:40.475Z,3.93
2023-07-21T17:37:12.404Z,3.40
2023-07-21T17:39:44.226Z,3.30
2023-07-21T17:42:16.134Z,4.13
2023-07-21T17:44:48.035Z,3.87
2023-07-21T17:47:19.845Z,4.37
2023-07-21T17:49:51.725Z,5.80
2023-07-21T17:52:23.621Z,4.20
2023-07-21T17:54:55.466Z,4.07
2023-07-21T17:57:27.361Z,6.50
2023-07-21T17:59:59.215Z,3.80
2023-07-21T18:02:31.101Z,4.07
2023-07-21T18:05:03.017Z,5.13
2023-07-21T18:07:34.988Z,4.00
2023-07-21T18:10:06.903Z,3.87
2023-07-21T18:12:38.764Z,5.23
2023-07-21T18:15:10.734Z,4.10
2023-07-21T18:17:42.619Z,5.43
2023-07-21T18:20:14.540Z,5.10
2023-07-21T18:22:46.410Z,4.80
2023-07-21T18:25:18.244Z,3.40
2023-07-21T18:27:50.144Z,7.77
2023-07-21T18:30:21.965Z,4.67
2023-07-21T18:32:53.904Z,3.77
2023-07-21T18:35:25.927Z,4.80
2023-07-21T18:37:57.796Z,6.17
2023-07-21T18:40:29.660Z,5.70
2023-07-21T18:43:01.564Z,5.17
2023-07-21T18:45:33.491Z,6.73
2023-07-21T18:48:05.398Z,5.73
2023-07-21T18:50:37.338Z,3.83
2023-07-21T18:53:09.244Z,5.07
2023-07-21T18:55:41.096Z,5.13
2023-07-21T18:58:13.141Z,6.63
2023-07-21T19:00:44.992Z,6.27
2023-07-21T19:03:16.826Z,4.60
2023-07-21T19:05:48.687Z,5.20
2023-07-21T19:08:20.545Z,5.30
2023-07-21T19:10:52.383Z,5.00
2023-07-21T19:13:24.252Z,4.70
2023-07-21T19:15:56.132Z,5.00
2023-07-21T19:18:27.991Z,5.50
2023-07-21T19:20:59.842Z,8.23
2023-07-21T19:23:31.780Z,8.10
2023-07-21T19:26:03.671Z,9.23
2023-07-21T19:28:35.564Z,8.13
2023-07-21T19:31:07.527Z,5.53
2023-07-21T19:33:39.495Z,8.57
2023-07-21T19:36:11.450Z,10.37
2023-07-21T19:38:43.500Z,6.63
2023-07-21T19:41:15.322Z,6.77
2023-07-21T19:43:47.254Z,5.27
2023-07-21T19:46:19.241Z,6.20
2023-07-21T19:48:51.243Z,7.30
2023-07-21T19:51:23.180Z,6.33
2023-07-21T19:53:55.193Z,4.60
2023-07-21T19:56:27.081Z,10.10
2023-07-21T19:58:59.002Z,5.83
2023-07-21T20:01:30.902Z,4.23
2023-07-21T20:04:02.945Z,3.60
2023-07-21T20:06:35.076Z,5.90
2023-07-21T20:09:07.220Z,4.60
2023-07-21T20:11:39.078Z,3.73
2023-07-21T20:14:10.983Z,4.20
2023-07-21T20:16:42.894Z,5.33
2023-07-21T20:19:14.724Z,4.77
2023-07-21T20:21:46.598Z,3.87
2023-07-21T20:24:18.493Z,3.20
2023-07-21T20:26:50.638Z,3.73
2023-07-21T20:29:22.518Z,2.80
2023-07-21T20:31:54.409Z,5.20
2023-07-21T20:34:26.269Z,3.90
2023-07-21T20:36:58.118Z,4.03
2023-07-21T20:39:30.007Z,2.67
2023-07-21T20:42:01.848Z,3.27
2023-07-21T20:44:33.930Z,3.37
2023-07-21T20:47:05.880Z,2.73
2023-07-21T20:49:37.773Z,4.13
2023-07-21T20:52:09.631Z,3.17
2023-07-21T20:54:41.483Z,4.77
2023-07-21T20:57:13.455Z,4.23
2023-07-21T20:59:46.836Z,3.47
2023-07-21T21:02:19.071Z,3.60
2023-07-21T21:04:50.948Z,2.67
2023-07-21T21:07:22.837Z,4.27
2023-07-21T21:09:54.723Z,6.17
2023-07-21T21:12:26.615Z,4.20
2023-07-21T21:14:58.469Z,3.77
2023-07-21T21:17:30.397Z,3.70
2023-07-21T21:20:02.498Z,5.40
2023-07-21T21:22:34.378Z,4.27
2023-07-21T21:25:06.282Z,4.23
2023-07-21T21:27:38.144Z,4.10
2023-07-21T21:30:10.041Z,5.60
2023-07-21T21:32:41.934Z,5.03
2023-07-21T21:35:13.808Z,4.07
2023-07-21T21:37:45.735Z,5.43
2023-07-21T21:40:17.589Z,4.40
2023-07-21T21:42:49.552Z,7.20
2023-07-21T21:45:21.413Z,4.80
2023-07-21T21:47:53.279Z,5.57
2023-07-21T21:50:25.178Z,5.30
2023-07-21T21:52:57.082Z,5.60
2023-07-21T21:55:29.066Z,7.67
2023-07-21T21:58:00.931Z,5.53
2023-07-21T22:00:33.050Z,6.40
2023-07-21T22:03:05.036Z,6.20
2023-07-21T22:05:37.180Z,6.27
2023-07-21T22:08:09.083Z,5.63
2023-07-21T22:10:40.964Z,7.27
2023-07-21T22:13:12.851Z,7.17
2023-07-21T22:15:44.785Z,7.37
2023-07-21T22:18:16.837Z,6.63
2023-07-21T22:20:48.794Z,6.60
2023-07-21T22:23:20.789Z,7.13
2023-07-21T22:25:52.665Z,7.47
2023-07-21T22:28:24.563Z,9.17
2023-07-21T22:30:56.556Z,7.53
2023-07-21T22:33:28.712Z,7.53
2023-07-21T22:36:00.614Z,9.17
2023-07-21T22:38:32.493Z,8.57
2023-07-21T22:41:04.400Z,10.77
2023-07-21T22:43:36.309Z,7.77
2023-07-21T22:46:08.337Z,8.93
2023-07-21T22:48:40.268Z,7.43
2023-07-21T22:51:12.131Z,8.93
2023-07-21T22:53:44.042Z,9.30
2023-07-21T22:56:16.200Z,6.67
2023-07-21T22:58:48.173Z,7.80
2023-07-21T23:01:20.092Z,8.30
2023-07-21T23:03:52.223Z,6.77
2023-07-21T23:06:24.576Z,9.47
2023-07-21T23:08:56.840Z,8.23
2023-07-21T23:11:28.729Z,8.10
2023-07-21T23:14:00.648Z,10.60
2023-07-21T23:16:32.701Z,10.90
2023-07-21T23:19:04.524Z,9.30
2023-07-21T23:21:36.434Z,8.53
2023-07-21T23:24:08.347Z,8.57
2023-07-21T23:26:40.254Z,9.23
2023-07-21T23:29:12.136Z,10.33
2023-07-21T23:31:44.010Z,8.80
2023-07-21T23:34:16.108Z,11.87
2023-07-21T23:36:48.024Z,10.43
2023-07-21T23:39:19.958Z,8.10
2023-07-21T23:41:51.826Z,7.90
2023-07-21T23:44:23.723Z,10.37
2023-07-21T23:46:55.756Z,10.40
2023-07-21T23:49:27.823Z,8.63
2023-07-21T23:51:59.788Z,9.00
2023-07-21T23:54:31.693Z,10.03
2023-07-21T23:57:03.566Z,9.87
2023-07-21T23:59:35.482Z,9.50
